Time;durP1;ratioP1;P1;durP2;ratioP2;P2;SDS_P1;SDS_P2;PMS_P1;PMS_P2;Temp;Humidity;BMP_temperature;BMP_pressure;BME280_temperature;BME280_humidity;BME280_pressure;Samples;Min_cycle;Max_cycle;Signal;HPM_P1;HPM_P2
2022/11/16 00:01:07;;;;;;;3.53;0.88;;;;;;;;;;6179076;23;20434;-56
2022/11/16 00:03:41;;;;;;;4.07;1.20;;;;;;;;;;6179668;23;20103;-55
2022/11/16 00:06:16;;;;;;;3.22;0.90;;;;;;;;;;6178090;23;20812;-54
2022/11/16 00:08:44;;;;;;;3.30;1.08;;;;;;;;;;6178386;23;20475;-56
2022/11/16 00:11:13;;;;;;;1.42;1.08;;;;;;;;;;6178937;23;20056;-57
2022/11/16 00:13:46;;;;;;;3.38;1.33;;;;;;;;;;6179607;23;20021;-62
2022/11/16 00:16:15;;;;;;;2.50;0.90;;;;;;;;;;6178722;23;20021;-62
2022/11/16 00:18:48;;;;;;;6.07;1.02;;;;;;;;;;6179492;23;20036;-63
2022/11/16 00:21:15;;;;;;;2.70;1.15;;;;;;;;;;6179361;23;20029;-63
2022/11/16 00:23:43;;;;;;;3.60;1.48;;;;;;;;;;6178812;23;20017;-63
2022/11/16 00:26:16;;;;;;;3.83;1.23;;;;;;;;;;6179356;23;20040;-63
2022/11/16 00:28:43;;;;;;;3.60;1.55;;;;;;;;;;6178294;23;20100;-63
2022/11/16 00:31:24;;;;;;;3.50;1.38;;;;;;;;;;6178814;23;20533;-65
2022/11/16 00:33:51;;;;;;;4.05;0.75;;;;;;;;;;6179401;23;20201;-59
2022/11/16 00:36:25;;;;;;;2.05;1.20;;;;;;;;;;6180303;23;20036;-65
2022/11/16 00:38:53;;;;;;;2.22;1.02;;;;;;;;;;6180083;23;20100;-65
2022/11/16 00:41:20;;;;;;;4.72;1.45;;;;;;;;;;6179954;23;20032;-65
2022/11/16 00:43:53;;;;;;;2.83;1.17;;;;;;;;;;6178882;23;20021;-65
2022/11/16 00:46:21;;;;;;;1.00;0.90;;;;;;;;;;6178771;23;20554;-65
2022/11/16 00:48:48;;;;;;;1.02;0.90;;;;;;;;;;6178108;23;20096;-66
2022/11/16 00:51:22;;;;;;;3.95;1.30;;;;;;;;;;6178902;23;20096;-60
2022/11/16 00:53:49;;;;;;;1.13;0.70;;;;;;;;;;6178329;23;20040;-65
2022/11/16 00:56:23;;;;;;;1.98;1.00;;;;;;;;;;6178275;23;20065;-65
2022/11/16 00:58:50;;;;;;;7.85;1.52;;;;;;;;;;6178880;23;20092;-64
2022/11/16 01:01:17;;;;;;;0.95;0.63;;;;;;;;;;6179960;23;20423;-65
2022/11/16 01:03:51;;;;;;;4.93;1.08;;;;;;;;;;6177801;23;20032;-65
2022/11/16 01:06:19;;;;;;;1.90;0.82;;;;;;;;;;6179135;23;20025;-65
2022/11/16 01:08:52;;;;;;;1.67;1.00;;;;;;;;;;6178378;23;20475;-61
2022/11/16 01:14:12;;;;;;;1.45;1.10;;;;;;;;;;6179698;23;20109;-46
2022/11/16 01:16:39;;;;;;;1.45;0.90;;;;;;;;;;6178616;23;20021;-47
2022/11/16 01:19:14;;;;;;;1.80;0.80;;;;;;;;;;6179248;23;20021;-46
2022/11/16 01:21:41;;;;;;;2.38;1.83;;;;;;;;;;6177689;23;20044;-49
2022/11/16 01:24:08;;;;;;;2.10;0.98;;;;;;;;;;6176870;23;20479;-46
2022/11/16 01:26:41;;;;;;;1.60;0.80;;;;;;;;;;6178200;23;20025;-46
2022/11/16 01:29:08;;;;;;;0.82;0.80;;;;;;;;;;6153024;23;20021;-54
2022/11/16 01:31:55;;;;;;;1.38;1.02;;;;;;;;;;6178457;23;20032;-57
2022/11/16 01:34:29;;;;;;;2.63;1.17;;;;;;;;;;6179839;23;20100;-57
2022/11/16 01:37:04;;;;;;;4.65;1.30;;;;;;;;;;6176624;23;20021;-58
2022/11/16 01:39:31;;;;;;;1.05;0.90;;;;;;;;;;6178556;23;20025;-57
2022/11/16 01:41:58;;;;;;;1.98;0.75;;;;;;;;;;6176198;23;20031;-56
2022/11/16 01:44:31;;;;;;;1.98;0.57;;;;;;;;;;6178459;23;20493;-58
2022/11/16 01:46:59;;;;;;;2.33;0.80;;;;;;;;;;6177763;23;20044;-54
2022/11/16 01:49:34;;;;;;;5.07;1.00;;;;;;;;;;6179504;23;20059;-55
2022/11/16 01:52:04;;;;;;;0.65;0.50;;;;;;;;;;6178683;23;20024;-65
2022/11/16 01:54:41;;;;;;;1.13;0.80;;;;;;;;;;6176976;23;20068;-64
2022/11/16 01:57:11;;;;;;;2.97;0.90;;;;;;;;;;6179309;23;20048;-65
2022/11/16 01:59:45;;;;;;;1.63;1.00;;;;;;;;;;6178392;23;20506;-65
2022/11/16 02:02:12;;;;;;;2.58;0.90;;;;;;;;;;6178459;23;20021;-64
2022/11/16 02:04:48;;;;;;;1.65;0.70;;;;;;;;;;6177883;23;20104;-66
2022/11/16 02:07:19;;;;;;;1.27;0.80;;;;;;;;;;6177771;23;20017;-63
2022/11/16 02:09:57;;;;;;;1.60;0.90;;;;;;;;;;6178395;23;20023;-56
2022/11/16 02:12:37;;;;;;;2.72;0.60;;;;;;;;;;6177968;23;20021;-55
2022/11/16 02:15:27;;;;;;;1.38;0.80;;;;;;;;;;6178816;23;20096;-55
2022/11/16 02:18:12;;;;;;;1.45;1.35;;;;;;;;;;6170945;23;20369;-56
2022/11/16 02:20:44;;;;;;;1.83;0.90;;;;;;;;;;6176958;23;20024;-55
2022/11/16 02:23:33;;;;;;;2.33;1.02;;;;;;;;;;6178157;23;20023;-55
2022/11/16 02:26:11;;;;;;;2.05;0.70;;;;;;;;;;6177945;23;20021;-65
2022/11/16 02:28:47;;;;;;;1.30;0.88;;;;;;;;;;6177606;23;20480;-57
2022/11/16 02:31:33;;;;;;;2.28;0.63;;;;;;;;;;6177772;23;20025;-55
2022/11/16 02:34:09;;;;;;;1.85;0.77;;;;;;;;;;6179053;23;20017;-51
2022/11/16 02:36:44;;;;;;;1.48;1.02;;;;;;;;;;6176381;23;20029;-53
2022/11/16 02:39:14;;;;;;;0.70;0.38;;;;;;;;;;6179033;23;20017;-54
2022/11/16 02:41:48;;;;;;;1.88;0.70;;;;;;;;;;6178676;23;20397;-53
2022/11/16 02:44:19;;;;;;;0.52;0.40;;;;;;;;;;6177327;23;20060;-59
2022/11/16 02:46:56;;;;;;;1.85;0.63;;;;;;;;;;6178789;23;20021;-48
2022/11/16 02:49:24;;;;;;;1.88;0.88;;;;;;;;;;6177948;23;20049;-52
2022/11/16 02:51:59;;;;;;;1.45;0.80;;;;;;;;;;6178519;23;20526;-54
2022/11/16 02:54:26;;;;;;;1.33;0.75;;;;;;;;;;6179472;23;20057;-53
2022/11/16 02:57:02;;;;;;;1.23;0.75;;;;;;;;;;6179893;23;20704;-53
2022/11/16 02:59:36;;;;;;;1.67;0.60;;;;;;;;;;6181115;23;20027;-54
2022/11/16 03:02:10;;;;;;;1.17;0.63;;;;;;;;;;6178954;23;20124;-51
2022/11/16 03:04:39;;;;;;;1.95;0.75;;;;;;;;;;6179762;23;20112;-46
2022/11/16 03:07:07;;;;;;;1.33;0.73;;;;;;;;;;6179583;23;20052;-55
2022/11/16 03:09:42;;;;;;;1.48;0.73;;;;;;;;;;6180083;23;20027;-57
2022/11/16 03:12:12;;;;;;;1.52;0.70;;;;;;;;;;6178926;23;20056;-57
2022/11/16 03:14:49;;;;;;;2.10;0.60;;;;;;;;;;6155308;23;20619;-53
2022/11/16 03:17:22;;;;;;;1.45;0.70;;;;;;;;;;6178632;23;20420;-55
2022/11/16 03:20:04;;;;;;;0.88;0.68;;;;;;;;;;6179540;23;20092;-55
2022/11/16 03:22:36;;;;;;;2.00;0.65;;;;;;;;;;6179867;23;20104;-52
2022/11/16 03:25:11;;;;;;;1.75;0.93;;;;;;;;;;6155312;23;20025;-45
2022/11/16 03:27:50;;;;;;;0.63;0.50;;;;;;;;;;6178478;23;20340;-59
2022/11/16 03:30:26;;;;;;;2.97;0.73;;;;;;;;;;6179390;23;20031;-60
2022/11/16 03:33:08;;;;;;;0.40;0.40;;;;;;;;;;6179019;23;20099;-59
2022/11/16 03:35:50;;;;;;;1.85;0.60;;;;;;;;;;6178915;23;20025;-60
2022/11/16 03:38:25;;;;;;;0.50;0.50;;;;;;;;;;6179725;23;20601;-59
2022/11/16 03:40:54;;;;;;;1.25;0.93;;;;;;;;;;6178959;23;20362;-59
2022/11/16 03:43:28;;;;;;;1.08;0.80;;;;;;;;;;6180160;23;20104;-55
2022/11/16 03:45:55;;;;;;;2.35;0.80;;;;;;;;;;6179631;23;20027;-63
2022/11/16 03:48:23;;;;;;;1.17;0.65;;;;;;;;;;6180290;23;20048;-63
2022/11/16 03:50:57;;;;;;;2.05;0.77;;;;;;;;;;6179318;23;20029;-63
2022/11/16 03:53:24;;;;;;;0.52;0.52;;;;;;;;;;6179523;23;20081;-63
2022/11/16 03:55:57;;;;;;;3.40;0.85;;;;;;;;;;6179122;23;20415;-63
2022/11/16 03:58:25;;;;;;;0.68;0.68;;;;;;;;;;6179867;23;20890;-63
2022/11/16 04:00:52;;;;;;;2.13;1.02;;;;;;;;;;6179443;23;20435;-57
2022/11/16 04:03:27;;;;;;;1.67;0.98;;;;;;;;;;6178344;23;20040;-65
2022/11/16 04:26:00;;;;;;;2.42;1.00;;;;;;;;;;6178863;23;20578;-55
2022/11/16 04:28:30;;;;;;;2.03;0.98;;;;;;;;;;6179620;23;20522;-53
2022/11/16 04:39:42;;;;;;;1.85;0.77;;;;;;;;;;6179730;23;20132;-59
2022/11/16 04:42:21;;;;;;;1.83;0.93;;;;;;;;;;6179478;23;20031;-65
2022/11/16 04:47:41;;;;;;;2.05;0.50;;;;;;;;;;6179172;23;20021;-65
2022/11/16 04:50:14;;;;;;;1.00;0.88;;;;;;;;;;6179571;23;20021;-65
2022/11/16 04:52:49;;;;;;;6.10;1.30;;;;;;;;;;6177621;23;20358;-65
2022/11/16 04:55:16;;;;;;;3.60;0.70;;;;;;;;;;6178687;23;20104;-66
2022/11/16 04:57:49;;;;;;;1.40;0.98;;;;;;;;;;6178970;23;20027;-55
2022/11/16 05:00:17;;;;;;;3.20;0.95;;;;;;;;;;6179366;23;20107;-62
2022/11/16 05:02:50;;;;;;;0.93;0.32;;;;;;;;;;6179335;23;20060;-65
2022/11/16 05:05:24;;;;;;;1.30;0.90;;;;;;;;;;6179458;23;20072;-65
2022/11/16 05:07:57;;;;;;;1.85;0.80;;;;;;;;;;6179974;23;20029;-65
2022/11/16 05:10:25;;;;;;;1.88;0.70;;;;;;;;;;6178589;23;20237;-65
2022/11/16 05:12:52;;;;;;;4.30;0.85;;;;;;;;;;6179785;23;20021;-65
2022/11/16 05:15:25;;;;;;;1.83;0.75;;;;;;;;;;6180737;23;20017;-65
2022/11/16 05:17:54;;;;;;;4.05;0.90;;;;;;;;;;6179128;23;20032;-58
2022/11/16 05:26:06;;;;;;;1.40;0.60;;;;;;;;;;6179400;23;20021;-52
2022/11/16 05:28:33;;;;;;;2.97;0.80;;;;;;;;;;6178790;23;20067;-56
2022/11/16 05:31:00;;;;;;;0.95;0.57;;;;;;;;;;6178122;23;20028;-51
2022/11/16 05:33:42;;;;;;;2.08;0.93;;;;;;;;;;6153418;23;20056;-51
2022/11/16 05:36:09;;;;;;;1.10;0.60;;;;;;;;;;6177543;23;20100;-56
2022/11/16 05:38:44;;;;;;;1.73;0.82;;;;;;;;;;6178309;23;20021;-59
2022/11/16 05:41:11;;;;;;;2.90;0.95;;;;;;;;;;6174815;23;20028;-59
2022/11/16 05:43:38;;;;;;;1.92;1.02;;;;;;;;;;6173914;23;20103;-60
2022/11/16 05:46:11;;;;;;;3.20;0.85;;;;;;;;;;6176674;23;20027;-59
2022/11/16 05:48:39;;;;;;;1.05;0.73;;;;;;;;;;6176910;23;20027;-59
2022/11/16 05:51:13;;;;;;;3.50;0.80;;;;;;;;;;6176080;23;20031;-59
2022/11/16 05:53:40;;;;;;;2.97;1.00;;;;;;;;;;6175643;23;20419;-59
2022/11/16 05:56:07;;;;;;;1.10;0.70;;;;;;;;;;6175376;23;20021;-59
2022/11/16 05:58:41;;;;;;;3.30;0.85;;;;;;;;;;6176769;23;20671;-66
2022/11/16 06:01:08;;;;;;;0.90;0.60;;;;;;;;;;6178317;23;20566;-65
2022/11/16 06:03:42;;;;;;;2.08;0.75;;;;;;;;;;6177879;23;20559;-64
2022/11/16 06:06:09;;;;;;;1.38;0.68;;;;;;;;;;6179615;23;20017;-65
2022/11/16 06:08:36;;;;;;;1.58;0.93;;;;;;;;;;6178739;23;20025;-65
2022/11/16 06:11:10;;;;;;;3.85;0.93;;;;;;;;;;6178754;23;20020;-64
2022/11/16 06:13:37;;;;;;;;;;;;;;;;;;6179538;23;20471;-64
2022/11/16 06:16:11;;;;;;;1.73;0.80;;;;;;;;;;6178693;23;19922;-58
2022/11/16 06:18:42;;;;;;;2.65;0.85;;;;;;;;;;6179122;23;20028;-62
2022/11/16 06:21:10;;;;;;;3.38;0.90;;;;;;;;;;6179084;23;20104;-62
2022/11/16 06:23:44;;;;;;;7.47;1.05;;;;;;;;;;6178327;23;20542;-62
2022/11/16 06:26:11;;;;;;;1.58;1.00;;;;;;;;;;6178290;23;20103;-62
2022/11/16 06:28:46;;;;;;;0.68;0.63;;;;;;;;;;6180686;23;20475;-62
2022/11/16 06:31:19;;;;;;;1.25;0.93;;;;;;;;;;6181192;23;20395;-61
2022/11/16 06:34:00;;;;;;;0.57;0.57;;;;;;;;;;6150137;23;20048;-58
2022/11/16 06:36:27;;;;;;;1.20;0.60;;;;;;;;;;6149730;23;20028;-59
2022/11/16 06:39:02;;;;;;;1.02;0.40;;;;;;;;;;6151255;23;20354;-58
2022/11/16 06:41:29;;;;;;;2.10;1.02;;;;;;;;;;6150857;23;20104;-59
2022/11/16 06:43:56;;;;;;;1.08;0.70;;;;;;;;;;6150776;23;20366;-58
2022/11/16 06:46:31;;;;;;;1.33;0.68;;;;;;;;;;6149996;23;20104;-58
2022/11/16 06:48:58;;;;;;;0.63;0.63;;;;;;;;;;6150293;23;20022;-58
2022/11/16 06:51:32;;;;;;;1.02;0.70;;;;;;;;;;6151552;23;20028;-58
2022/11/16 06:53:59;;;;;;;3.58;1.25;;;;;;;;;;6123903;23;20377;-54
2022/11/16 06:56:26;;;;;;;0.75;0.65;;;;;;;;;;6151046;23;20489;-55
2022/11/16 06:58:59;;;;;;;0.70;0.70;;;;;;;;;;6151560;23;20021;-54
2022/11/16 07:01:27;;;;;;;1.38;0.70;;;;;;;;;;6150761;23;20022;-53
2022/11/16 07:04:01;;;;;;;1.23;0.60;;;;;;;;;;6149152;23;20026;-54
2022/11/16 07:06:29;;;;;;;1.60;0.70;;;;;;;;;;6150554;23;20100;-52
2022/11/16 07:09:05;;;;;;;1.83;0.80;;;;;;;;;;6150787;23;20032;-51
2022/11/16 07:11:33;;;;;;;0.80;0.55;;;;;;;;;;6150301;23;20028;-54
2022/11/16 07:14:07;;;;;;;0.85;0.77;;;;;;;;;;6150768;23;20022;-52
2022/11/16 07:16:35;;;;;;;3.08;0.80;;;;;;;;;;6150602;23;20025;-62
2022/11/16 07:19:02;;;;;;;2.75;0.90;;;;;;;;;;6150029;23;20018;-63
2022/11/16 07:21:37;;;;;;;1.13;0.80;;;;;;;;;;6150449;23;20523;-62
2022/11/16 07:24:04;;;;;;;2.13;0.75;;;;;;;;;;6149681;23;20032;-62
2022/11/16 07:26:34;;;;;;;0.65;0.60;;;;;;;;;;6147877;23;20097;-62
2022/11/16 07:29:08;;;;;;;2.00;1.10;;;;;;;;;;6150703;23;20116;-62
2022/11/16 07:31:49;;;;;;;2.65;1.05;;;;;;;;;;6153901;23;20028;-63
2022/11/16 07:34:30;;;;;;;1.52;0.80;;;;;;;;;;6180741;23;20027;-58
2022/11/16 07:36:57;;;;;;;0.82;0.77;;;;;;;;;;6179597;23;20104;-59
2022/11/16 07:39:32;;;;;;;2.47;0.95;;;;;;;;;;6179590;23;20374;-59
2022/11/16 07:41:59;;;;;;;2.05;1.38;;;;;;;;;;6180010;23;20024;-60
2022/11/16 07:44:32;;;;;;;1.77;0.80;;;;;;;;;;6180082;23;20474;-60
2022/11/16 07:47:00;;;;;;;3.88;0.95;;;;;;;;;;6179445;23;20024;-59
2022/11/16 07:49:33;;;;;;;2.25;1.13;;;;;;;;;;6179669;23;20017;-49
2022/11/16 07:52:02;;;;;;;1.58;1.38;;;;;;;;;;6180152;23;20024;-65
2022/11/16 07:54:36;;;;;;;1.42;0.90;;;;;;;;;;6180599;23;20021;-56
2022/11/16 07:57:03;;;;;;;0.85;0.80;;;;;;;;;;6180393;23;20024;-52
2022/11/16 07:59:37;;;;;;;1.60;0.80;;;;;;;;;;6179370;23;20023;-52
2022/11/16 08:02:04;;;;;;;1.90;1.38;;;;;;;;;;6179176;23;20020;-53
2022/11/16 08:04:31;;;;;;;0.77;0.75;;;;;;;;;;6180969;23;20020;-57
2022/11/16 08:07:04;;;;;;;0.75;0.63;;;;;;;;;;6178323;23;20041;-55
2022/11/16 08:09:32;;;;;;;3.03;1.00;;;;;;;;;;6179870;23;20024;-46
2022/11/16 08:12:06;;;;;;;0.90;0.90;;;;;;;;;;6180206;23;20025;-55
2022/11/16 08:14:33;;;;;;;2.28;1.33;;;;;;;;;;6180092;23;20103;-53
2022/11/16 08:17:02;;;;;;;1.35;0.90;;;;;;;;;;6178902;23;20774;-52
2022/11/16 08:19:36;;;;;;;0.93;0.82;;;;;;;;;;6180353;23;20027;-54
2022/11/16 08:22:03;;;;;;;0.75;0.75;;;;;;;;;;6179079;23;20124;-50
2022/11/16 08:24:30;;;;;;;2.65;0.95;;;;;;;;;;6176320;23;20025;-53
2022/11/16 08:27:03;;;;;;;3.45;0.90;;;;;;;;;;6178922;23;20109;-63
2022/11/16 08:29:31;;;;;;;1.00;0.88;;;;;;;;;;6180348;23;20029;-59
2022/11/16 08:32:12;;;;;;;0.90;0.57;;;;;;;;;;6178173;23;20459;-65
2022/11/16 08:34:46;;;;;;;2.25;0.65;;;;;;;;;;6179970;23;20063;-65
2022/11/16 08:37:20;;;;;;;1.90;0.80;;;;;;;;;;6178432;23;20140;-65
2022/11/16 08:39:47;;;;;;;0.60;0.60;;;;;;;;;;6179892;23;20024;-65
2022/11/16 08:42:14;;;;;;;2.35;0.80;;;;;;;;;;6179380;23;20371;-65
2022/11/16 08:44:48;;;;;;;2.97;0.70;;;;;;;;;;6179637;23;20017;-65
2022/11/16 08:47:15;;;;;;;1.20;0.95;;;;;;;;;;6178095;23;20031;-59
2022/11/16 08:49:42;;;;;;;1.17;0.60;;;;;;;;;;6179245;23;20097;-54
2022/11/16 08:52:16;;;;;;;3.03;0.50;;;;;;;;;;6178026;23;20827;-56
2022/11/16 08:54:43;;;;;;;0.85;0.60;;;;;;;;;;6179444;23;20032;-52
2022/11/16 08:57:17;;;;;;;1.88;0.70;;;;;;;;;;6179625;23;20477;-55
2022/11/16 08:59:44;;;;;;;0.50;0.50;;;;;;;;;;6179047;23;20020;-53
2022/11/16 09:02:24;;;;;;;1.75;0.82;;;;;;;;;;6178986;23;20021;-54
2022/11/16 09:04:52;;;;;;;1.45;0.50;;;;;;;;;;6180326;23;20095;-56
2022/11/16 09:07:25;;;;;;;0.40;0.40;;;;;;;;;;6179069;23;20017;-60
2022/11/16 09:09:53;;;;;;;1.08;0.60;;;;;;;;;;6179260;23;20063;-47
2022/11/16 09:12:26;;;;;;;0.55;0.35;;;;;;;;;;6179448;23;20578;-47
2022/11/16 09:14:54;;;;;;;1.30;0.63;;;;;;;;;;6178026;23;20052;-44
2022/11/16 09:17:28;;;;;;;0.82;0.60;;;;;;;;;;6179602;23;20121;-46
2022/11/16 09:19:55;;;;;;;0.57;0.50;;;;;;;;;;6179313;23;20104;-45
2022/11/16 09:22:22;;;;;;;1.02;0.47;;;;;;;;;;6178750;23;20366;-46
2022/11/16 09:24:56;;;;;;;2.08;0.50;;;;;;;;;;6178250;23;20100;-57
2022/11/16 09:27:23;;;;;;;2.15;0.50;;;;;;;;;;6177286;23;20100;-53
2022/11/16 09:29:50;;;;;;;0.77;0.43;;;;;;;;;;6178765;23;20025;-51
2022/11/16 09:32:30;;;;;;;1.35;0.65;;;;;;;;;;6177676;23;20048;-53
2022/11/16 09:34:57;;;;;;;2.10;0.60;;;;;;;;;;6179902;23;20021;-55
2022/11/16 09:37:32;;;;;;;0.57;0.38;;;;;;;;;;6178274;23;20017;-54
2022/11/16 09:39:59;;;;;;;1.60;0.45;;;;;;;;;;6180056;23;20067;-52
2022/11/16 09:42:29;;;;;;;0.40;0.40;;;;;;;;;;6179839;23;20048;-54
2022/11/16 09:45:07;;;;;;;1.20;0.55;;;;;;;;;;6178275;23;20021;-59
2022/11/16 09:47:51;;;;;;;0.40;0.40;;;;;;;;;;6178523;23;20052;-59
2022/11/16 09:50:46;;;;;;;0.50;0.43;;;;;;;;;;6179266;23;20040;-59
2022/11/16 09:53:19;;;;;;;1.15;0.65;;;;;;;;;;6178510;23;20035;-60
2022/11/16 09:55:55;;;;;;;2.45;0.60;;;;;;;;;;6178650;23;20490;-60
2022/11/16 09:58:35;;;;;;;4.35;0.98;;;;;;;;;;6177838;23;20021;-60
2022/11/16 10:01:27;;;;;;;0.85;0.50;;;;;;;;;;6177948;23;20536;-59
2022/11/16 10:04:12;;;;;;;2.67;0.68;;;;;;;;;;6179087;23;20037;-55
2022/11/16 10:06:46;;;;;;;0.70;0.70;;;;;;;;;;6178295;23;20092;-52
2022/11/16 10:09:20;;;;;;;0.50;0.50;;;;;;;;;;6178757;23;20245;-54
2022/11/16 10:11:47;;;;;;;;;;;;;;;;;;6179608;23;20025;-54
2022/11/16 10:14:44;;;;;;;1.38;0.43;;;;;;;;;;6176597;23;20006;-55
2022/11/16 10:17:37;;;;;;;2.28;0.80;;;;;;;;;;6178915;23;20027;-51
2022/11/16 10:20:29;;;;;;;1.27;0.68;;;;;;;;;;6155721;23;20024;-55
2022/11/16 10:23:00;;;;;;;2.13;0.70;;;;;;;;;;6178068;23;20068;-50
2022/11/16 10:25:40;;;;;;;0.65;0.50;;;;;;;;;;6177709;23;20100;-64
2022/11/16 10:28:17;;;;;;;1.33;0.65;;;;;;;;;;6179126;23;20024;-65
2022/11/16 10:31:18;;;;;;;0.80;0.60;;;;;;;;;;6178195;23;20024;-66
2022/11/16 10:33:53;;;;;;;0.60;0.50;;;;;;;;;;6174366;23;20032;-66
2022/11/16 10:36:29;;;;;;;1.40;0.65;;;;;;;;;;6177594;23;20047;-65
2022/11/16 10:38:57;;;;;;;1.33;0.63;;;;;;;;;;6178962;23;20051;-65
2022/11/16 10:41:32;;;;;;;2.90;0.90;;;;;;;;;;6178689;23;20471;-53
2022/11/16 10:44:00;;;;;;;0.63;0.63;;;;;;;;;;6177880;23;20039;-56
2022/11/16 10:46:40;;;;;;;1.75;0.60;;;;;;;;;;6177989;23;20056;-49
2022/11/16 10:49:19;;;;;;;1.73;0.70;;;;;;;;;;6178258;23;20021;-49
2022/11/16 10:51:52;;;;;;;3.40;0.60;;;;;;;;;;6177687;23;20104;-47
2022/11/16 10:54:20;;;;;;;5.65;0.88;;;;;;;;;;6179016;23;20108;-45
2022/11/16 10:57:02;;;;;;;2.67;0.60;;;;;;;;;;6177400;23;20096;-49
2022/11/16 10:59:39;;;;;;;1.05;0.65;;;;;;;;;;6177441;23;20355;-57
2022/11/16 11:02:35;;;;;;;1.38;0.40;;;;;;;;;;6177092;23;20027;-46
2022/11/16 11:05:02;;;;;;;1.42;0.60;;;;;;;;;;6178598;23;20021;-50
2022/11/16 11:07:38;;;;;;;1.27;0.60;;;;;;;;;;6178368;23;20483;-52
2022/11/16 11:10:20;;;;;;;1.40;0.70;;;;;;;;;;6178816;23;20032;-54
2022/11/16 11:13:02;;;;;;;1.70;0.73;;;;;;;;;;6177539;23;20100;-52
2022/11/16 11:15:41;;;;;;;1.27;0.63;;;;;;;;;;6180103;23;20063;-50
2022/11/16 11:18:20;;;;;;;1.30;0.65;;;;;;;;;;6179691;23;20025;-56
2022/11/16 11:21:13;;;;;;;1.05;0.77;;;;;;;;;;6179381;23;20021;-45
2022/11/16 11:23:41;;;;;;;0.20;0.20;;;;;;;;;;6179044;23;20096;-48
2022/11/16 11:26:33;;;;;;;1.45;0.70;;;;;;;;;;6180761;23;20328;-45
2022/11/16 11:29:08;;;;;;;2.58;0.57;;;;;;;;;;6180026;23;20075;-46
2022/11/16 11:31:43;;;;;;;1.77;0.60;;;;;;;;;;6178982;23;20568;-45
2022/11/16 11:34:23;;;;;;;2.60;0.77;;;;;;;;;;6179407;23;20029;-45
2022/11/16 11:37:00;;;;;;;0.95;0.40;;;;;;;;;;6179877;23;20529;-48
2022/11/16 11:39:27;;;;;;;1.25;0.65;;;;;;;;;;6180640;23;20052;-55
2022/11/16 11:42:13;;;;;;;0.55;0.50;;;;;;;;;;6180041;23;20028;-59
2022/11/16 11:44:54;;;;;;;3.60;0.73;;;;;;;;;;6179751;23;20025;-59
2022/11/16 11:47:27;;;;;;;0.43;0.40;;;;;;;;;;6166952;23;20727;-59
2022/11/16 11:50:22;;;;;;;1.00;0.50;;;;;;;;;;6158234;23;20060;-59
2022/11/16 11:53:07;;;;;;;0.55;0.55;;;;;;;;;;6179498;23;20096;-59
2022/11/16 11:55:41;;;;;;;1.48;0.95;;;;;;;;;;6179385;23;20025;-60
2022/11/16 11:58:14;;;;;;;1.30;0.43;;;;;;;;;;6179659;23;20032;-63
2022/11/16 12:01:08;;;;;;;1.05;0.52;;;;;;;;;;6180265;23;20027;-57
2022/11/16 12:03:53;;;;;;;1.23;0.60;;;;;;;;;;6138532;23;20024;-51
2022/11/16 12:06:42;;;;;;;1.55;0.60;;;;;;;;;;6179398;23;20039;-55
2022/11/16 12:09:27;;;;;;;1.55;0.60;;;;;;;;;;6180567;23;20040;-52
2022/11/16 12:12:06;;;;;;;3.40;0.90;;;;;;;;;;6178653;23;20035;-53
2022/11/16 12:14:46;;;;;;;1.42;0.57;;;;;;;;;;6180048;23;20089;-57
2022/11/16 12:17:35;;;;;;;0.60;0.52;;;;;;;;;;6180727;23;20470;-63
2022/11/16 12:20:11;;;;;;;1.77;0.80;;;;;;;;;;6178284;23;20028;-59
2022/11/16 12:23:00;;;;;;;0.60;0.50;;;;;;;;;;6178984;23;20024;-59
2022/11/16 12:25:33;;;;;;;1.38;0.50;;;;;;;;;;6179418;23;20029;-59
2022/11/16 12:28:17;;;;;;;0.75;0.63;;;;;;;;;;6178985;23;20100;-59
2022/11/16 12:31:12;;;;;;;0.30;0.30;;;;;;;;;;6179766;23;20028;-59
2022/11/16 12:34:10;;;;;;;3.33;0.75;;;;;;;;;;6178665;23;20047;-59
2022/11/16 12:36:56;;;;;;;0.52;0.52;;;;;;;;;;6180447;23;20023;-55
2022/11/16 12:39:35;;;;;;;1.85;0.70;;;;;;;;;;6179429;23;20040;-59
2022/11/16 12:42:02;;;;;;;0.60;0.43;;;;;;;;;;6178939;23;20508;-60
2022/11/16 12:44:56;;;;;;;1.55;0.60;;;;;;;;;;6179225;23;20777;-59
2022/11/16 12:47:23;;;;;;;0.45;0.45;;;;;;;;;;6179402;23;20051;-59
2022/11/16 12:50:22;;;;;;;0.40;0.40;;;;;;;;;;6179653;23;20099;-59
2022/11/16 12:53:06;;;;;;;2.95;0.70;;;;;;;;;;6148616;23;20100;-59
2022/11/16 12:55:52;;;;;;;1.63;0.60;;;;;;;;;;6178688;23;20021;-60
2022/11/16 12:58:24;;;;;;;0.82;0.57;;;;;;;;;;6179757;23;20053;-63
2022/11/16 13:01:05;;;;;;;1.17;0.50;;;;;;;;;;6180131;23;20092;-62
2022/11/16 13:03:38;;;;;;;2.80;0.40;;;;;;;;;;6178523;23;20339;-63
2022/11/16 13:06:20;;;;;;;0.75;0.45;;;;;;;;;;6178879;23;20021;-62
2022/11/16 13:09:01;;;;;;;0.38;0.38;;;;;;;;;;6178900;23;20467;-62
2022/11/16 13:11:39;;;;;;;2.85;0.50;;;;;;;;;;6179040;23;20021;-63
2022/11/16 13:14:10;;;;;;;1.10;0.47;;;;;;;;;;6178497;23;20035;-59
2022/11/16 13:16:45;;;;;;;0.35;0.30;;;;;;;;;;6179072;23;20104;-57
2022/11/16 13:19:19;;;;;;;1.30;0.50;;;;;;;;;;6178017;23;20128;-58
2022/11/16 13:21:46;;;;;;;;;;;;;;;;;;6179992;23;20053;-54
2022/11/16 13:24:29;;;;;;;0.45;0.43;;;;;;;;;;6179220;23;19979;-53
2022/11/16 13:27:03;;;;;;;3.50;0.65;;;;;;;;;;6178324;23;20383;-56
2022/11/16 13:29:39;;;;;;;0.35;0.35;;;;;;;;;;6179219;23;20411;-53
2022/11/16 13:32:19;;;;;;;0.57;0.38;;;;;;;;;;6178430;23;20075;-58
2022/11/16 13:35:00;;;;;;;1.27;0.45;;;;;;;;;;6178454;23;20462;-51
2022/11/16 13:37:33;;;;;;;1.38;0.40;;;;;;;;;;6178290;23;20021;-52
2022/11/16 13:40:07;;;;;;;1.27;0.60;;;;;;;;;;6179635;23;20100;-53
2022/11/16 13:42:57;;;;;;;1.25;0.60;;;;;;;;;;6178924;23;20031;-52
2022/11/16 13:45:35;;;;;;;0.90;0.50;;;;;;;;;;6170911;23;20036;-55
2022/11/16 13:48:05;;;;;;;2.70;0.65;;;;;;;;;;6178966;23;20091;-53
2022/11/16 13:50:45;;;;;;;0.93;0.68;;;;;;;;;;6178446;23;20048;-54
2022/11/16 13:53:20;;;;;;;0.57;0.45;;;;;;;;;;6178584;23;20017;-55
2022/11/16 13:56:15;;;;;;;0.82;0.50;;;;;;;;;;6177922;23;20139;-59
2022/11/16 13:58:44;;;;;;;0.82;0.35;;;;;;;;;;6178182;23;20021;-59
2022/11/16 14:01:18;;;;;;;1.30;0.70;;;;;;;;;;6179469;23;20061;-59
2022/11/16 14:03:46;;;;;;;1.27;0.40;;;;;;;;;;6176525;23;20441;-58
2022/11/16 14:06:23;;;;;;;2.53;0.50;;;;;;;;;;6178855;23;20027;-58
2022/11/16 14:08:57;;;;;;;2.45;0.43;;;;;;;;;;6177885;23;20055;-59
2022/11/16 14:11:40;;;;;;;3.03;0.63;;;;;;;;;;6179060;23;20017;-59
2022/11/16 14:14:11;;;;;;;0.55;0.50;;;;;;;;;;6178736;23;20025;-65
2022/11/16 14:16:45;;;;;;;0.63;0.50;;;;;;;;;;6177512;23;20028;-65
2022/11/16 14:19:12;;;;;;;;;;;;;;;;;;6178107;23;20100;-65
2022/11/16 14:21:53;;;;;;;0.77;0.55;;;;;;;;;;6179195;23;19987;-64
2022/11/16 14:24:30;;;;;;;0.57;0.50;;;;;;;;;;6178028;23;20728;-65
2022/11/16 14:27:09;;;;;;;0.77;0.50;;;;;;;;;;6178012;23;20021;-65
2022/11/16 14:29:46;;;;;;;1.10;0.60;;;;;;;;;;6178238;23;20467;-64
2022/11/16 14:32:23;;;;;;;1.90;0.68;;;;;;;;;;6178316;23;20128;-65
2022/11/16 14:35:04;;;;;;;2.40;0.70;;;;;;;;;;6148086;23;20031;-55
2022/11/16 14:37:36;;;;;;;0.55;0.40;;;;;;;;;;6148418;23;20036;-56
2022/11/16 14:40:18;;;;;;;0.77;0.60;;;;;;;;;;6148138;23;20367;-54
2022/11/16 14:42:53;;;;;;;0.68;0.45;;;;;;;;;;6147834;23;20026;-57
2022/11/16 14:45:46;;;;;;;5.35;0.40;;;;;;;;;;6148626;23;20542;-52
2022/11/16 14:48:18;;;;;;;0.57;0.57;;;;;;;;;;6148890;23;20021;-57
2022/11/16 14:50:51;;;;;;;;;;;;;;;;;;6151603;23;20097;-59
2022/11/16 14:53:19;;;;;;;0.82;0.50;;;;;;;;;;6150505;23;20343;-55
2022/11/16 14:56:04;;;;;;;0.60;0.40;;;;;;;;;;6148544;23;20029;-55
2022/11/16 14:58:37;;;;;;;1.30;0.52;;;;;;;;;;6150108;23;20093;-56
2022/11/16 15:01:13;;;;;;;1.50;0.73;;;;;;;;;;6149721;23;20596;-56
2022/11/16 15:03:42;;;;;;;1.73;0.52;;;;;;;;;;6148705;23;20349;-61
2022/11/16 15:06:09;;;;;;;1.67;0.82;;;;;;;;;;6149783;23;20028;-56
2022/11/16 15:08:44;;;;;;;1.38;0.57;;;;;;;;;;6149725;23;20427;-59
2022/11/16 15:11:20;;;;;;;1.17;0.65;;;;;;;;;;6149057;23;20498;-53
2022/11/16 15:13:55;;;;;;;1.35;0.40;;;;;;;;;;6150648;23;20035;-54
2022/11/16 15:16:22;;;;;;;1.08;0.68;;;;;;;;;;6145052;23;20026;-56
2022/11/16 15:18:49;;;;;;;;;;;;;;;;;;6144230;23;20029;-54
2022/11/16 15:21:23;;;;;;;1.15;0.57;;;;;;;;;;6148663;23;19931;-53
2022/11/16 15:23:50;;;;;;;2.30;0.60;;;;;;;;;;6143871;23;20130;-55
2022/11/16 15:26:37;;;;;;;0.77;0.40;;;;;;;;;;6144516;23;20025;-55
2022/11/16 15:29:23;;;;;;;0.75;0.43;;;;;;;;;;6144821;23;20021;-54
2022/11/16 15:31:58;;;;;;;1.20;0.80;;;;;;;;;;6149291;23;20053;-51
2022/11/16 15:34:25;;;;;;;;;;;;;;;;;;6175630;23;20460;-54
2022/11/16 15:37:10;;;;;;;0.50;0.50;;;;;;;;;;6154746;23;20047;-53
2022/11/16 15:39:40;;;;;;;2.38;0.80;;;;;;;;;;6179633;23;20027;-51
2022/11/16 15:42:15;;;;;;;1.58;0.60;;;;;;;;;;6154278;23;20423;-46
2022/11/16 15:44:43;;;;;;;1.05;0.60;;;;;;;;;;6179949;23;20336;-45
2022/11/16 15:47:11;;;;;;;6.05;1.00;;;;;;;;;;6180184;23;20025;-53
2022/11/16 15:49:48;;;;;;;3.17;0.70;;;;;;;;;;6175839;23;20028;-57
2022/11/16 15:52:34;;;;;;;1.65;0.80;;;;;;;;;;6176354;23;20103;-52
2022/11/16 15:55:19;;;;;;;0.80;0.68;;;;;;;;;;6178080;23;20020;-53
2022/11/16 15:57:58;;;;;;;2.00;0.75;;;;;;;;;;6180463;23;20017;-55
2022/11/16 16:00:33;;;;;;;1.40;0.80;;;;;;;;;;6177898;23;20375;-54
2022/11/16 16:03:03;;;;;;;2.20;1.00;;;;;;;;;;6178266;23;20025;-54
2022/11/16 16:05:38;;;;;;;5.72;0.95;;;;;;;;;;6180166;23;20023;-60
2022/11/16 16:08:06;;;;;;;2.10;1.20;;;;;;;;;;6178900;23;20477;-66